sensor_id;sensor_type;location;lat;lon;timestamp;pressure;altitude;pressure_sealevel;temperature;humidity
10474;BME280;5284;50.446;7.904;2023-07-22T00:03:49;98358.97;;;11.11;100.00
10474;BME280;5284;50.446;7.904;2023-07-22T00:08:52;98356.84;;;10.95;100.00
10474;BME280;5284;50.446;7.904;2023-07-22T00:13:55;98354.84;;;10.88;100.00
10474;BME280;5284;50.446;7.904;2023-07-22T00:19:00;98359.91;;;10.91;100.00
10474;BME280;5284;50.446;7.904;2023-07-22T00:24:03;98352.06;;;10.89;100.00
10474;BME280;5284;50.446;7.904;2023-07-22T00:29:07;98356.94;;;10.84;100.00
10474;BME280;5284;50.446;7.904;2023-07-22T00:34:11;98359.72;;;10.73;100.00
10474;BME280;5284;50.446;7.904;2023-07-22T00:39:14;98360.25;;;10.67;100.00
10474;BME280;5284;50.446;7.904;2023-07-22T00:44:18;98358.69;;;10.65;100.00
10474;BME280;5284;50.446;7.904;2023-07-22T00:49:23;98356.16;;;10.54;100.00
10474;BME280;5284;50.446;7.904;2023-07-22T00:54:26;98359.91;;;10.42;100.00
10474;BME280;5284;50.446;7.904;2023-07-22T00:59:30;98353.44;;;10.45;100.00
10474;BME280;5284;50.446;7.904;2023-07-22T01:04:34;98350.31;;;10.40;100.00
10474;BME280;5284;50.446;7.904;2023-07-22T01:09:38;98348.75;;;10.37;100.00
10474;BME280;5284;50.446;7.904;2023-07-22T01:14:41;98342.72;;;10.35;100.00
10474;BME280;5284;50.446;7.904;2023-07-22T01:19:46;98344.38;;;10.27;100.00
10474;BME280;5284;50.446;7.904;2023-07-22T01:24:51;98345.75;;;10.21;100.00
10474;BME280;5284;50.446;7.904;2023-07-22T01:29:55;98338.56;;;10.12;100.00
10474;BME280;5284;50.446;7.904;2023-07-22T01:34:58;98333.78;;;10.06;100.00
10474;BME280;5284;50.446;7.904;2023-07-22T01:40:03;98345.88;;;9.99;100.00
10474;BME280;5284;50.446;7.904;2023-07-22T01:45:13;98341.28;;;10.01;100.00
10474;BME280;5284;50.446;7.904;2023-07-22T01:50:16;98333.69;;;9.97;100.00
10474;BME280;5284;50.446;7.904;2023-07-22T01:55:21;98337.25;;;9.86;100.00
10474;BME280;5284;50.446;7.904;2023-07-22T02:00:24;98346.59;;;9.81;100.00
10474;BME280;5284;50.446;7.904;2023-07-22T02:05:28;98342.50;;;9.77;100.00
10474;BME280;5284;50.446;7.904;2023-07-22T02:10:34;98337.97;;;9.68;100.00
10474;BME280;5284;50.446;7.904;2023-07-22T02:15:37;98336.41;;;9.65;100.00
10474;BME280;5284;50.446;7.904;2023-07-22T02:20:42;98346.59;;;9.60;100.00
10474;BME280;5284;50.446;7.904;2023-07-22T02:25:49;98341.53;;;9.57;100.00
10474;BME280;5284;50.446;7.904;2023-07-22T02:30:53;98342.31;;;9.48;100.00
10474;BME280;5284;50.446;7.904;2023-07-22T02:35:56;98335.84;;;9.41;100.00
10474;BME280;5284;50.446;7.904;2023-07-22T02:41:03;98333.44;;;9.38;100.00
10474;BME280;5284;50.446;7.904;2023-07-22T02:46:09;98337.69;;;9.30;100.00
10474;BME280;5284;50.446;7.904;2023-07-22T02:51:12;98346.66;;;9.29;100.00
10474;BME280;5284;50.446;7.904;2023-07-22T02:56:16;98337.94;;;9.27;100.00
10474;BME280;5284;50.446;7.904;2023-07-22T03:01:19;98339.44;;;9.20;100.00
10474;BME280;5284;50.446;7.904;2023-07-22T03:06:22;98341.34;;;9.18;100.00
10474;BME280;5284;50.446;7.904;2023-07-22T03:11:29;98345.94;;;9.16;100.00
10474;BME280;5284;50.446;7.904;2023-07-22T03:16:32;98339.47;;;9.09;100.00
10474;BME280;5284;50.446;7.904;2023-07-22T03:21:35;98349.16;;;8.99;100.00
10474;BME280;5284;50.446;7.904;2023-07-22T03:26:39;98348.56;;;8.96;100.00
10474;BME280;5284;50.446;7.904;2023-07-22T03:31:42;98346.28;;;8.91;100.00
10474;BME280;5284;50.446;7.904;2023-07-22T03:36:45;98345.09;;;8.84;100.00
10474;BME280;5284;50.446;7.904;2023-07-22T03:41:50;98350.19;;;8.87;100.00
10474;BME280;5284;50.446;7.904;2023-07-22T03:46:52;98355.59;;;8.86;100.00
10474;BME280;5284;50.446;7.904;2023-07-22T03:51:56;98366.34;;;8.84;100.00
10474;BME280;5284;50.446;7.904;2023-07-22T03:57:00;98368.28;;;8.82;100.00
10474;BME280;5284;50.446;7.904;2023-07-22T04:02:03;98369.75;;;8.86;100.00
10474;BME280;5284;50.446;7.904;2023-07-22T04:07:06;98369.75;;;8.86;100.00
10474;BME280;5284;50.446;7.904;2023-07-22T04:12:12;98372.53;;;8.85;100.00
10474;BME280;5284;50.446;7.904;2023-07-22T04:17:14;98368.91;;;8.86;100.00
10474;BME280;5284;50.446;7.904;2023-07-22T04:22:18;98364.31;;;8.88;100.00
10474;BME280;5284;50.446;7.904;2023-07-22T04:27:22;98363.19;;;9.01;100.00
10474;BME280;5284;50.446;7.904;2023-07-22T04:32:25;98370.28;;;9.11;100.00
10474;BME280;5284;50.446;7.904;2023-07-22T04:37:28;98367.13;;;9.17;100.00
10474;BME280;5284;50.446;7.904;2023-07-22T04:42:32;98371.22;;;9.21;100.00
10474;BME280;5284;50.446;7.904;2023-07-22T04:47:35;98377.72;;;9.28;100.00
10474;BME280;5284;50.446;7.904;2023-07-22T04:52:38;98371.50;;;9.39;100.00
10474;BME280;5284;50.446;7.904;2023-07-22T04:57:43;98371.47;;;9.50;100.00
10474;BME280;5284;50.446;7.904;2023-07-22T05:02:46;98355.72;;;9.58;100.00
10474;BME280;5284;50.446;7.904;2023-07-22T05:07:50;98367.47;;;9.76;100.00
10474;BME280;5284;50.446;7.904;2023-07-22T05:12:55;98364.50;;;9.90;100.00
10474;BME280;5284;50.446;7.904;2023-07-22T05:17:59;98355.91;;;10.07;100.00
10474;BME280;5284;50.446;7.904;2023-07-22T05:23:02;98356.75;;;10.28;100.00
10474;BME280;5284;50.446;7.904;2023-07-22T05:28:07;98351.19;;;10.50;100.00
10474;BME280;5284;50.446;7.904;2023-07-22T05:33:09;98359.44;;;10.76;100.00
10474;BME280;5284;50.446;7.904;2023-07-22T05:38:12;98353.47;;;11.03;100.00
10474;BME280;5284;50.446;7.904;2023-07-22T05:43:17;98356.31;;;11.30;100.00
10474;BME280;5284;50.446;7.904;2023-07-22T05:48:20;98351.97;;;11.67;100.00
10474;BME280;5284;50.446;7.904;2023-07-22T05:53:23;98350.69;;;12.09;100.00
10474;BME280;5284;50.446;7.904;2023-07-22T05:58:27;98357.88;;;12.44;100.00
10474;BME280;5284;50.446;7.904;2023-07-22T06:03:30;98357.16;;;12.79;100.00
10474;BME280;5284;50.446;7.904;2023-07-22T06:08:33;98357.22;;;13.23;100.00
10474;BME280;5284;50.446;7.904;2023-07-22T06:13:37;98359.28;;;13.47;100.00
10474;BME280;5284;50.446;7.904;2023-07-22T06:18:41;98360.72;;;13.76;100.00
10474;BME280;5284;50.446;7.904;2023-07-22T06:23:43;98354.47;;;14.10;100.00
10474;BME280;5284;50.446;7.904;2023-07-22T06:28:48;98358.50;;;14.32;100.00
10474;BME280;5284;50.446;7.904;2023-07-22T06:33:51;98360.63;;;14.79;100.00
10474;BME280;5284;50.446;7.904;2023-07-22T06:38:53;98371.28;;;15.05;100.00
10474;BME280;5284;50.446;7.904;2023-07-22T06:43:59;98376.09;;;15.27;100.00
10474;BME280;5284;50.446;7.904;2023-07-22T06:49:02;98368.06;;;15.42;100.00
10474;BME280;5284;50.446;7.904;2023-07-22T06:54:06;98365.81;;;15.95;100.00
10474;BME280;5284;50.446;7.904;2023-07-22T06:59:10;98371.84;;;16.13;100.00
10474;BME280;5284;50.446;7.904;2023-07-22T07:04:13;98374.34;;;15.99;100.00
10474;BME280;5284;50.446;7.904;2023-07-22T07:09:16;98379.41;;;16.50;100.00
10474;BME280;5284;50.446;7.904;2023-07-22T07:14:20;98370.81;;;16.54;100.00
10474;BME280;5284;50.446;7.904;2023-07-22T07:19:23;98378.44;;;16.97;100.00
10474;BME280;5284;50.446;7.904;2023-07-22T07:24:26;98377.50;;;17.20;100.00
10474;BME280;5284;50.446;7.904;2023-07-22T07:29:31;98374.81;;;17.81;100.00
10474;BME280;5284;50.446;7.904;2023-07-22T07:34:54;98367.97;;;17.93;98.67
10474;BME280;5284;50.446;7.904;2023-07-22T07:39:56;98374.75;;;17.89;95.46
10474;BME280;5284;50.446;7.904;2023-07-22T07:45:03;98377.53;;;18.18;91.85
10474;BME280;5284;50.446;7.904;2023-07-22T07:50:07;98371.47;;;18.39;87.31
10474;BME280;5284;50.446;7.904;2023-07-22T07:55:10;98377.78;;;18.31;88.04
10474;BME280;5284;50.446;7.904;2023-07-22T08:00:15;98374.63;;;18.93;84.92
10474;BME280;5284;50.446;7.904;2023-07-22T08:05:18;98365.47;;;19.09;83.99
10474;BME280;5284;50.446;7.904;2023-07-22T08:10:20;98371.72;;;19.24;79.71
10474;BME280;5284;50.446;7.904;2023-07-22T08:15:25;98371.44;;;19.69;77.17
10474;BME280;5284;50.446;7.904;2023-07-22T08:20:28;98364.56;;;19.16;75.25
10474;BME280;5284;50.446;7.904;2023-07-22T08:25:32;98365.16;;;19.47;74.92
10474;BME280;5284;50.446;7.904;2023-07-22T08:30:36;98360.97;;;20.22;70.46
10474;BME280;5284;50.446;7.904;2023-07-22T08:35:41;98359.28;;;20.42;70.88
10474;BME280;5284;50.446;7.904;2023-07-22T08:40:48;98366.06;;;19.90;72.53
10474;BME280;5284;50.446;7.904;2023-07-22T08:45:52;98364.50;;;19.81;73.28
10474;BME280;5284;50.446;7.904;2023-07-22T08:51:03;98365.47;;;20.63;71.99
10474;BME280;5284;50.446;7.904;2023-07-22T08:56:06;98369.72;;;21.40;67.00
10474;BME280;5284;50.446;7.904;2023-07-22T09:01:11;98361.78;;;22.05;61.46
10474;BME280;5284;50.446;7.904;2023-07-22T09:06:14;98354.06;;;21.42;59.07
10474;BME280;5284;50.446;7.904;2023-07-22T09:11:19;98354.31;;;22.20;56.31
10474;BME280;5284;50.446;7.904;2023-07-22T09:16:24;98347.81;;;22.27;55.65
10474;BME280;5284;50.446;7.904;2023-07-22T09:21:33;98353.41;;;21.40;51.22
10474;BME280;5284;50.446;7.904;2023-07-22T09:26:42;98350.72;;;21.40;51.86
10474;BME280;5284;50.446;7.904;2023-07-22T09:31:50;98350.72;;;22.00;51.28
10474;BME280;5284;50.446;7.904;2023-07-22T09:36:55;98364.97;;;22.60;49.17
10474;BME280;5284;50.446;7.904;2023-07-22T09:41:58;98340.66;;;21.81;49.09
10474;BME280;5284;50.446;7.904;2023-07-22T09:47:07;98343.63;;;22.25;47.57
10474;BME280;5284;50.446;7.904;2023-07-22T09:52:12;98342.78;;;21.98;48.86
10474;BME280;5284;50.446;7.904;2023-07-22T09:57:15;98338.34;;;21.84;49.34
10474;BME280;5284;50.446;7.904;2023-07-22T10:02:21;98328.41;;;22.43;49.82
10474;BME280;5284;50.446;7.904;2023-07-22T10:07:25;98325.00;;;22.87;48.33
10474;BME280;5284;50.446;7.904;2023-07-22T10:12:29;98326.50;;;22.18;48.69
10474;BME280;5284;50.446;7.904;2023-07-22T10:17:34;98328.78;;;22.79;48.10
10474;BME280;5284;50.446;7.904;2023-07-22T10:22:37;98316.31;;;23.29;47.37
10474;BME280;5284;50.446;7.904;2023-07-22T10:27:40;98313.56;;;23.72;47.72
10474;BME280;5284;50.446;7.904;2023-07-22T10:32:47;98308.84;;;23.99;46.52
10474;BME280;5284;50.446;7.904;2023-07-22T10:37:52;98311.81;;;23.91;47.00
10474;BME280;5284;50.446;7.904;2023-07-22T10:42:58;98304.47;;;22.97;47.37
10474;BME280;5284;50.446;7.904;2023-07-22T10:48:05;98301.81;;;22.65;47.84
10474;BME280;5284;50.446;7.904;2023-07-22T10:53:12;98302.91;;;22.44;47.23
10474;BME280;5284;50.446;7.904;2023-07-22T10:58:19;98311.91;;;22.38;48.06
10474;BME280;5284;50.446;7.904;2023-07-22T11:03:24;98301.31;;;23.00;46.70
10474;BME280;5284;50.446;7.904;2023-07-22T11:08:37;98311.59;;;22.85;47.30
10474;BME280;5284;50.446;7.904;2023-07-22T11:13:40;98302.63;;;22.78;47.82
10474;BME280;5284;50.446;7.904;2023-07-22T11:18:45;98291.13;;;23.83;46.29
10474;BME280;5284;50.446;7.904;2023-07-22T11:23:48;98293.53;;;24.47;46.10
10474;BME280;5284;50.446;7.904;2023-07-22T11:28:51;98277.00;;;23.93;45.27
10474;BME280;5284;50.446;7.904;2023-07-22T11:33:56;98278.44;;;23.21;45.95
10474;BME280;5284;50.446;7.904;2023-07-22T11:39:02;98269.00;;;22.53;47.21
10474;BME280;5284;50.446;7.904;2023-07-22T11:44:05;98275.88;;;22.62;47.01
10474;BME280;5284;50.446;7.904;2023-07-22T11:49:12;98261.56;;;22.93;46.31
10474;BME280;5284;50.446;7.904;2023-07-22T11:54:15;98254.72;;;23.34;46.00
10474;BME280;5284;50.446;7.904;2023-07-22T11:59:32;98256.09;;;24.11;46.28
10474;BME280;5284;50.446;7.904;2023-07-22T12:04:38;98253.81;;;24.57;47.32
10474;BME280;5284;50.446;7.904;2023-07-22T12:09:40;98264.69;;;24.82;43.83
10474;BME280;5284;50.446;7.904;2023-07-22T12:14:43;98259.19;;;24.39;45.55
10474;BME280;5284;50.446;7.904;2023-07-22T12:19:54;98258.00;;;23.86;45.49
10474;BME280;5284;50.446;7.904;2023-07-22T12:24:59;98259.34;;;23.64;45.24
10474;BME280;5284;50.446;7.904;2023-07-22T12:30:07;98258.72;;;24.67;44.56
10474;BME280;5284;50.446;7.904;2023-07-22T12:35:12;98247.75;;;25.09;44.24
10474;BME280;5284;50.446;7.904;2023-07-22T12:40:16;98249.53;;;25.21;42.36
10474;BME280;5284;50.446;7.904;2023-07-22T12:45:19;98244.28;;;24.66;42.43
10474;BME280;5284;50.446;7.904;2023-07-22T12:50:23;98228.44;;;25.58;41.75
10474;BME280;5284;50.446;7.904;2023-07-22T12:55:26;98221.69;;;26.70;41.67
10474;BME280;5284;50.446;7.904;2023-07-22T13:00:29;98234.22;;;27.40;40.96
10474;BME280;5284;50.446;7.904;2023-07-22T13:05:33;98224.19;;;27.34;39.95
10474;BME280;5284;50.446;7.904;2023-07-22T13:10:36;98221.47;;;28.23;36.84
10474;BME280;5284;50.446;7.904;2023-07-22T13:15:40;98208.03;;;25.72;40.94
10474;BME280;5284;50.446;7.904;2023-07-22T13:20:44;98211.66;;;27.66;39.41
10474;BME280;5284;50.446;7.904;2023-07-22T13:25:47;98215.56;;;28.85;37.23
10474;BME280;5284;50.446;7.904;2023-07-22T13:30:50;98206.53;;;28.46;36.39
10474;BME280;5284;50.446;7.904;2023-07-22T13:35:56;98208.81;;;27.72;38.67
10474;BME280;5284;50.446;7.904;2023-07-22T13:40:58;98201.03;;;26.63;39.56
10474;BME280;5284;50.446;7.904;2023-07-22T13:46:01;98199.25;;;28.24;37.18
10474;BME280;5284;50.446;7.904;2023-07-22T13:51:06;98193.75;;;28.57;36.76
10474;BME280;5284;50.446;7.904;2023-07-22T13:56:08;98199.25;;;31.51;35.74
10474;BME280;5284;50.446;7.904;2023-07-22T14:01:13;98193.56;;;33.50;33.50
10474;BME280;5284;50.446;7.904;2023-07-22T14:06:17;98185.69;;;30.78;35.87
10474;BME280;5284;50.446;7.904;2023-07-22T14:11:20;98178.94;;;30.23;35.25
10474;BME280;5284;50.446;7.904;2023-07-22T14:16:24;98170.13;;;29.15;36.07
10474;BME280;5284;50.446;7.904;2023-07-22T14:21:28;98178.13;;;28.57;36.23
10474;BME280;5284;50.446;7.904;2023-07-22T14:26:31;98173.41;;;31.06;34.08
10474;BME280;5284;50.446;7.904;2023-07-22T14:31:34;98183.47;;;33.26;30.65
10474;BME280;5284;50.446;7.904;2023-07-22T14:36:38;98169.44;;;30.40;33.40
10474;BME280;5284;50.446;7.904;2023-07-22T14:41:41;98172.81;;;30.52;33.76
10474;BME280;5284;50.446;7.904;2023-07-22T14:46:45;98178.66;;;30.24;34.08
10474;BME280;5284;50.446;7.904;2023-07-22T14:51:49;98167.69;;;34.18;30.67
10474;BME280;5284;50.446;7.904;2023-07-22T14:56:52;98166.34;;;29.69;34.44
10474;BME280;5284;50.446;7.904;2023-07-22T15:01:55;98161.66;;;34.68;29.64
10474;BME280;5284;50.446;7.904;2023-07-22T15:06:59;98171.22;;;35.51;29.22
10474;BME280;5284;50.446;7.904;2023-07-22T15:12:05;98176.78;;;36.06;28.67
10474;BME280;5284;50.446;7.904;2023-07-22T15:17:09;98165.38;;;36.71;27.32
10474;BME280;5284;50.446;7.904;2023-07-22T15:22:13;98154.50;;;35.14;28.81
10474;BME280;5284;50.446;7.904;2023-07-22T15:27:16;98159.38;;;35.82;27.74
10474;BME280;5284;50.446;7.904;2023-07-22T15:32:19;98149.88;;;33.91;30.25
10474;BME280;5284;50.446;7.904;2023-07-22T15:37:23;98144.44;;;33.28;30.31
10474;BME280;5284;50.446;7.904;2023-07-22T15:42:26;98144.84;;;38.11;26.25
10474;BME280;5284;50.446;7.904;2023-07-22T15:47:29;98149.69;;;38.71;25.51
10474;BME280;5284;50.446;7.904;2023-07-22T15:52:33;98142.06;;;36.09;26.63
10474;BME280;5284;50.446;7.904;2023-07-22T15:57:38;98135.06;;;37.02;27.10
10474;BME280;5284;50.446;7.904;2023-07-22T16:02:41;98129.06;;;38.06;26.51
10474;BME280;5284;50.446;7.904;2023-07-22T16:07:45;98133.78;;;38.19;26.51
10474;BME280;5284;50.446;7.904;2023-07-22T16:12:48;98124.28;;;36.05;27.72
10474;BME280;5284;50.446;7.904;2023-07-22T16:17:51;98112.13;;;36.01;27.60
10474;BME280;5284;50.446;7.904;2023-07-22T16:22:55;98115.41;;;36.53;27.45
10474;BME280;5284;50.446;7.904;2023-07-22T16:27:58;98110.34;;;35.36;27.76
10474;BME280;5284;50.446;7.904;2023-07-22T16:33:01;98105.91;;;33.41;29.14
10474;BME280;5284;50.446;7.904;2023-07-22T16:38:05;98098.88;;;31.87;31.23
10474;BME280;5284;50.446;7.904;2023-07-22T16:43:08;98109.22;;;31.10;31.76
10474;BME280;5284;50.446;7.904;2023-07-22T16:48:11;98099.72;;;30.81;32.48
10474;BME280;5284;50.446;7.904;2023-07-22T16:53:15;98106.63;;;30.32;33.26
10474;BME280;5284;50.446;7.904;2023-07-22T16:58:18;98096.88;;;29.84;33.87
10474;BME280;5284;50.446;7.904;2023-07-22T17:03:21;98108.38;;;33.47;31.08
10474;BME280;5284;50.446;7.904;2023-07-22T17:08:25;98101.03;;;30.64;33.44
10474;BME280;5284;50.446;7.904;2023-07-22T17:13:28;98098.19;;;28.54;36.17
10474;BME280;5284;50.446;7.904;2023-07-22T17:18:31;98093.16;;;29.68;34.60
10474;BME280;5284;50.446;7.904;2023-07-22T17:23:35;98099.72;;;28.45;35.99
10474;BME280;5284;50.446;7.904;2023-07-22T17:28:38;98090.53;;;28.02;36.94
10474;BME280;5284;50.446;7.904;2023-07-22T17:33:41;98089.91;;;26.39;38.72
10474;BME280;5284;50.446;7.904;2023-07-22T17:38:46;98091.50;;;26.12;39.75
10474;BME280;5284;50.446;7.904;2023-07-22T17:43:49;98087.31;;;25.52;40.56
10474;BME280;5284;50.446;7.904;2023-07-22T17:48:52;98075.81;;;25.20;41.30
10474;BME280;5284;50.446;7.904;2023-07-22T17:53:56;98085.56;;;24.98;41.20
10474;BME280;5284;50.446;7.904;2023-07-22T17:58:59;98081.16;;;24.86;41.66
10474;BME280;5284;50.446;7.904;2023-07-22T18:04:02;98083.91;;;24.68;42.20
10474;BME280;5284;50.446;7.904;2023-07-22T18:09:07;98089.00;;;24.11;43.01
10474;BME280;5284;50.446;7.904;2023-07-22T18:14:10;98082.25;;;23.71;44.05
10474;BME280;5284;50.446;7.904;2023-07-22T18:19:12;98081.28;;;23.41;44.74
10474;BME280;5284;50.446;7.904;2023-07-22T18:24:17;98079.41;;;23.11;45.68
10474;BME280;5284;50.446;7.904;2023-07-22T18:29:19;98078.09;;;22.82;46.13
10474;BME280;5284;50.446;7.904;2023-07-22T18:34:22;98079.69;;;22.65;46.52
10474;BME280;5284;50.446;7.904;2023-07-22T18:39:27;98085.59;;;22.56;46.60
10474;BME280;5284;50.446;7.904;2023-07-22T18:44:29;98084.38;;;22.39;46.81
10474;BME280;5284;50.446;7.904;2023-07-22T18:49:33;98089.06;;;22.19;47.61
10474;BME280;5284;50.446;7.904;2023-07-22T18:54:37;98090.16;;;21.98;47.59
10474;BME280;5284;50.446;7.904;2023-07-22T18:59:42;98084.97;;;21.77;48.38
10474;BME280;5284;50.446;7.904;2023-07-22T19:04:45;98090.00;;;21.61;48.65
10474;BME280;5284;50.446;7.904;2023-07-22T19:09:49;98089.75;;;21.43;49.24
10474;BME280;5284;50.446;7.904;2023-07-22T19:14:52;98086.66;;;21.20;50.99
10474;BME280;5284;50.446;7.904;2023-07-22T19:19:55;98085.38;;;21.03;50.35
10474;BME280;5284;50.446;7.904;2023-07-22T19:24:59;98083.84;;;20.81;53.76
10474;BME280;5284;50.446;7.904;2023-07-22T19:30:03;98102.78;;;20.68;52.69
10474;BME280;5284;50.446;7.904;2023-07-22T19:35:07;98100.22;;;20.47;55.50
10474;BME280;5284;50.446;7.904;2023-07-22T19:40:13;98101.38;;;20.25;56.58
10474;BME280;5284;50.446;7.904;2023-07-22T19:45:16;98099.84;;;20.10;57.33
10474;BME280;5284;50.446;7.904;2023-07-22T19:50:19;98089.69;;;19.85;60.27
10474;BME280;5284;50.446;7.904;2023-07-22T19:55:24;98096.63;;;19.66;60.96
10474;BME280;5284;50.446;7.904;2023-07-22T20:00:27;98093.78;;;19.47;63.70
10474;BME280;5284;50.446;7.904;2023-07-22T20:05:30;98092.22;;;19.31;67.05
10474;BME280;5284;50.446;7.904;2023-07-22T20:10:34;98090.22;;;19.19;68.39
10474;BME280;5284;50.446;7.904;2023-07-22T20:15:37;98090.34;;;19.11;69.27
10474;BME280;5284;50.446;7.904;2023-07-22T20:20:40;98095.13;;;19.09;66.16
10474;BME280;5284;50.446;7.904;2023-07-22T20:25:44;98098.38;;;19.04;69.22
10474;BME280;5284;50.446;7.904;2023-07-22T20:30:48;98090.28;;;19.04;70.83
10474;BME280;5284;50.446;7.904;2023-07-22T20:35:54;98083.72;;;18.92;77.10
10474;BME280;5284;50.446;7.904;2023-07-22T20:41:02;98089.44;;;18.83;80.96
10474;BME280;5284;50.446;7.904;2023-07-22T20:46:05;98088.94;;;18.73;84.27
10474;BME280;5284;50.446;7.904;2023-07-22T20:51:08;98101.13;;;18.69;80.76
10474;BME280;5284;50.446;7.904;2023-07-22T20:56:12;98091.75;;;18.65;79.26
10474;BME280;5284;50.446;7.904;2023-07-22T21:01:15;98089.03;;;18.65;76.34
10474;BME280;5284;50.446;7.904;2023-07-22T21:06:18;98088.41;;;18.63;74.51
10474;BME280;5284;50.446;7.904;2023-07-22T21:11:22;98098.13;;;18.57;73.47
10474;BME280;5284;50.446;7.904;2023-07-22T21:16:26;98101.66;;;18.58;72.95
10474;BME280;5284;50.446;7.904;2023-07-22T21:21:29;98091.06;;;18.56;72.47
10474;BME280;5284;50.446;7.904;2023-07-22T21:26:34;98097.66;;;18.54;73.58
10474;BME280;5284;50.446;7.904;2023-07-22T21:31:37;98097.41;;;18.49;76.92
10474;BME280;5284;50.446;7.904;2023-07-22T21:36:40;98088.38;;;18.42;79.18
10474;BME280;5284;50.446;7.904;2023-07-22T21:41:44;98096.03;;;18.39;78.77
10474;BME280;5284;50.446;7.904;2023-07-22T21:46:48;98093.69;;;18.36;75.44
10474;BME280;5284;50.446;7.904;2023-07-22T21:51:51;98097.59;;;18.33;73.65
10474;BME280;5284;50.446;7.904;2023-07-22T21:56:56;98094.25;;;18.31;72.95
10474;BME280;5284;50.446;7.904;2023-07-22T22:01:59;98093.81;;;18.28;74.58
10474;BME280;5284;50.446;7.904;2023-07-22T22:07:02;98099.41;;;18.26;74.51
10474;BME280;5284;50.446;7.904;2023-07-22T22:12:07;98091.00;;;18.21;75.42
10474;BME280;5284;50.446;7.904;2023-07-22T22:17:10;98094.06;;;18.18;75.96
10474;BME280;5284;50.446;7.904;2023-07-22T22:22:14;98089.06;;;18.15;76.10
10474;BME280;5284;50.446;7.904;2023-07-22T22:27:18;98089.63;;;18.11;78.22
10474;BME280;5284;50.446;7.904;2023-07-22T22:32:21;98078.53;;;18.06;78.25
10474;BME280;5284;50.446;7.904;2023-07-22T22:37:24;98086.16;;;18.02;78.40
10474;BME280;5284;50.446;7.904;2023-07-22T22:42:28;98083.84;;;17.99;76.91
10474;BME280;5284;50.446;7.904;2023-07-22T22:47:31;98078.44;;;17.99;80.55
10474;BME280;5284;50.446;7.904;2023-07-22T22:52:34;98074.66;;;17.79;94.25
10474;BME280;5284;50.446;7.904;2023-07-22T22:57:39;98068.03;;;17.67;95.46
10474;BME280;5284;50.446;7.904;2023-07-22T23:02:43;98051.31;;;17.57;96.18
10474;BME280;5284;50.446;7.904;2023-07-22T23:07:48;98053.38;;;17.55;93.28
10474;BME280;5284;50.446;7.904;2023-07-22T23:12:52;98043.81;;;17.53;88.88
10474;BME280;5284;50.446;7.904;2023-07-22T23:17:55;98041.63;;;17.34;97.83
10474;BME280;5284;50.446;7.904;2023-07-22T23:22:59;98045.16;;;17.34;97.31
10474;BME280;5284;50.446;7.904;2023-07-22T23:28:04;98038.56;;;17.37;94.81
10474;BME280;5284;50.446;7.904;2023-07-22T23:33:06;98041.31;;;17.29;96.75
10474;BME280;5284;50.446;7.904;2023-07-22T23:38:10;98042.16;;;17.29;94.88
10474;BME280;5284;50.446;7.904;2023-07-22T23:43:14;98034.81;;;17.23;95.42
10474;BME280;5284;50.446;7.904;2023-07-22T23:48:17;98027.56;;;17.24;92.08
10474;BME280;5284;50.446;7.904;2023-07-22T23:53:20;98036.56;;;17.16;97.25
10474;BME280;5284;50.446;7.904;2023-07-22T23:58:25;98032.38;;;17.14;98.17
